Portada
METAR-TAF:

METAR-TAF

Aeropuertos :

Aeropuerto de Badajoz

Badajoz, España

latitud: 38-53N, longitud: 006-49W, altitud: 185 m

Observación

El informe se hizo hace 8 horas y 17 minutos, a las 19:00 UTC
Viento 6 kt del oeste
Temperatura 24°C
Humedad 47%
Presión 1013 hPa
Visibilidad 10 km o más
sin nubes por debajo de 1500 m y sin presencia de cumulonimbus.

METAR: LEBZ 221900Z 26006KT CAVOK 24/12 Q1013

Hora: 05:17 (03:17 UTC)

Pronóstico

El informe se hizo hace 4 horas y 17 minutos, a las 23:00 UTC
Pronóstico válido del 23 a las 00 UTC al 23 a las 24 UTC
Viento 3 kt con dirección variable
Visibilidad 10 km o más
sin nubes por debajo de 1500 m y sin presencia de cumulonimbus.
Probabilidad 40% :
Temporalmente
del 23 a las 14 UTC al 23 a las 18 UTC
Escasas nubes a una altura de 2000 ft, Cumulus congestus.
chaparrones de lluvia

TAF: LEBZ 222300Z 2300/2324 VRB03KT CAVOK TX25/2314Z TN14/2305Z PROB40 TEMPO 2314/2318 SHRA FEW020TCU

Observaciones y pronósticos meteorológicos de más de 4000 aeropuertos (mensajes METAR y TAF).

Los puntos amarillos y rojos representan las estaciones disponibles.

Ponga el ratón en el punto deseado para ver el nombre de la estación.

Haga clic para ver las observaciones y los pronósticos meteorológicos.

Para cambiar el mapa : haga clic en los botones verdes con una cruz de color negro para hacer un zoom, en el botón verde con un guión para alejar o en las flechas verdes para mapas adyacentes.


METAR-TAF: